Airfield :







YOU CAN JOIN US ON...

 
LOGIN :

Register | Disclaimer

   EN    FR    IT 

 









Legend :    VFR   Marginal VFR   IFR   Intensive IFR   Very Intensive IFR
Visi :
Ceiling :
>= 8 km
>= 3000ft
5 to 8 km
1000 to 3000 ft
1500m to 5 km
500 to 1000 ft
800 to 1500m
200 to 500 ft
< 800m
< 200 ft
Symbols :   Thunderstorms  Fog  Heavy snow  Heavy precipitations  Wind > 20 kt






- Airport Elevation : 160 ft
- IATA code : YYG


CYYG - Charlottetown

CURRENT METAR :
  • 031800Z 16020G26KT 15SM BKN013 BKN110 11/07 A2958 RMK CF6AC1 SLP019 DENSITY ALT 200FT

EXPIRED METARs :
  • 031700Z 17028G34KT 15SM SCT017 BKN110 11/06 A2960 RMK CF3AC3 SLP025 DENSITY ALT 200FT
  • 031600Z 20025G34KT 15SM FEW022 BKN120 12/06 A2961 RMK CF1AC6 CF TR SLP029 DENSITY ALT 200FT

TAF TAF CYYG
Valid from the 03 at 14:00 until the 04 at 01:00 UTC


031338Z 0314/0401 21012G22KT P6SM FEW060 BKN100
FM031500 20015G25KT P6SM SCT020 BKN060
TEMPO 0315/0318 P6SM -SHRA BKN020 OVC060
FM031800 18015G25KT P6SM BKN020 OVC030
TEMPO 0318/0324 BKN025
FM040000 21008KT P6SM SCT012 BKN120 RMK NXT FCST BY 032000Z
CZQM FIR / North America



MET'MAP, your aeronautical weather chart ! - Copyright ORBIFLY December 2007 - Disclaimer

ORBIFLY MET'MAP TEAM :

Programming & Development : Alexandra Zaïnal
Concept & original design : Baudouin d'Aumeries
Assistance for programming : Marc-Olivier Méhu
Technical & hardware support : Manuel Goepfert

Contact : metmap@orbifly.com




SOURCES & CREDITS :

   NOAA